Logo

Informe meteorológico de la semana en curso

  • Compartir en Google Plus
  • Compartir en Twitter
  • Compartir en Facebook
Nº de accesos al conjunto de datos: 164

Previsualización

API de datos Código HTML

_id codest paraje municipio periodo NDias tmin tmax tmed hrmin hrmax hrmed prec radmax radmed vvmed vvmax eto_pm_fao
1 AL31 Lebor Totana 18/11/2019 - 24/11/2019 1 6.6 16.1 11.5 35.8 94.3 60.0 1.8 601.0 144.4 1.9 7.8 1.8
2 AL41 La Calavera Alhama 18/11/2019 - 24/11/2019 1 6.6 15.7 11.8 33.9 80.7 52.7 1.5 586.3 144.5 2.7 11.5 2.2
3 AL52 Los Palomos Librilla 18/11/2019 - 24/11/2019 1 7.5 15.5 11.5 41.0 92.8 60.3 4.8 601.6 136.9 1.7 8.1 1.6
4 AL62 Cañada Gallego Mazarrón 18/11/2019 - 24/11/2019 1 6.5 16.7 12.4 31.3 82.3 57.9 4.3 628.7 154.4 1.8 10.2 1.9
5 AL91 Leiva Mazarrón 18/11/2019 - 24/11/2019 1 5.9 16.6 11.9 38.2 99.9 70.2 3.6 561.6 139.0 2.1 10.8 1.8
6 CA12 La Palma Cartagena 18/11/2019 - 24/11/2019 1 8.1 16.0 12.4 42.9 88.9 62.6 4.8 583.6 142.2 2.2 10.9 1.8
7 CA21 Corvera Murcia 18/11/2019 - 24/11/2019 1 8.2 14.2 11.1 45.6 94.5 63.6 5.3 562.6 137.5 2.5 14.0 1.7
8 CA42 Balsapintada Fuente Alamo 18/11/2019 - 24/11/2019 1 9.1 15.6 11.9 45.1 97.8 65.1 6.3 585.2 144.9 2.0 7.5 1.7
9 CA52 La Aljorra Cartagena 18/11/2019 - 24/11/2019 1 9.3 15.6 12.1 45.6 94.0 63.6 4.5 575.1 143.4 3.4 9.9 2.1
10 CA73 Los Belones Cartagena 18/11/2019 - 24/11/2019 1 10.8 15.5 13.0 43.7 92.6 61.2 6.3 572.2 136.2 1.9 10.0 1.7
11 CA91 Campillo Abajo Fuente Alamo 18/11/2019 - 24/11/2019 1 6.9 16.1 11.5 36.9 89.4 59.6 4.0 601.5 146.6 0.4 6.7 1.0
12 CI22 Estación de Blanca Blanca 18/11/2019 - 24/11/2019 1 8.4 13.9 10.7 37.9 87.8 58.7 2.4 738.9 142.7 1.2 7.4 1.3
13 CI32 Estación Ulea Ulea 18/11/2019 - 24/11/2019 1 6.8 14.3 10.3 44.9 99.9 70.1 2.8 628.2 131.4 3.2 8.6 1.8
14 CI42 La Carrichosa Cieza 18/11/2019 - 24/11/2019 1 6.2 14.8 11.2 40.7 98.5 64.0 2.3 660.8 146.3 1.7 10.0 1.5
15 CI52 Rotas Calasparra 18/11/2019 - 24/11/2019 1 6.4 14.1 10.1 37.1 90.9 61.4 2.7 658.0 128.2 2.4 11.9 1.8
16 CI71 Llano de las olivericas Calasparra 18/11/2019 - 24/11/2019 1 7.7 14.1 10.3 42.7 99.9 66.9 3.0 553.2 122.6 1.6 12.1 1.4
17 CR12 Barranda Caravaca 18/11/2019 - 24/11/2019 1 1.7 9.3 5.7 47.5 88.6 67.2 4.5 565.2 141.2 2.1 12.9 1.3
18 CR32 El Chaparral Cehegin 18/11/2019 - 24/11/2019 1 3.0 12.9 8.5 40.7 91.7 65.7 5.1 641.3 132.5 1.6 10.8 1.4
19 CR42 Venta Ulea Moratalla 18/11/2019 - 24/11/2019 1 4.7 12.6 9.2 47.5 94.3 64.3 3.9 648.3 137.1 3.4 10.3 1.8
20 CR52 La Torrecica Cehegin 18/11/2019 - 24/11/2019 1 3.7 13.2 8.7 39.3 91.6 64.5 4.4 617.8 139.7 1.3 8.8 1.3
21 CR61 Casas del Rey Moratalla 18/11/2019 - 24/11/2019 1 2.7 6.7 4.4 59.1 99.9 76.5 4.4 None None 4.3 9.7 None
22 JU12 Cª del Judio Jumilla 18/11/2019 - 24/11/2019 1 4.0 12.2 8.5 48.2 92.0 69.2 3.2 629.3 134.5 2.4 11.4 1.5
23 JU42 Las Moratillas Yecla 18/11/2019 - 24/11/2019 1 1.2 10.1 6.0 56.8 98.6 79.3 0.4 580.9 119.8 1.7 7.0 1.0
24 JU52 Pinillos Yecla 18/11/2019 - 24/11/2019 1 3.0 11.7 7.3 51.3 92.7 70.4 0.6 683.4 135.1 1.7 9.0 1.2
25 JU71 Las Encebras Jumilla 18/11/2019 - 24/11/2019 1 5.7 12.3 8.9 45.6 91.5 66.2 2.2 792.1 142.6 2.9 12.4 1.7
26 JU81 Roman Jumilla 18/11/2019 - 24/11/2019 1 5.7 12.8 9.5 41.5 88.9 62.8 3.7 688.5 138.5 1.6 8.6 1.4
27 LO11 Purias Lorca 18/11/2019 - 24/11/2019 1 4.9 14.9 11.2 39.2 90.6 62.6 2.4 650.4 139.0 2.1 7.7 1.8
28 LO21 Pozohiguera Lorca 18/11/2019 - 24/11/2019 1 5.9 15.4 11.3 36.9 88.1 60.0 1.7 689.9 140.8 3.3 9.4 2.3
29 LO31 La Pilica Aguilas 18/11/2019 - 24/11/2019 1 9.6 18.4 14.4 30.6 82.4 53.4 2.0 580.0 140.6 2.0 6.8 2.2
30 LO41 La Paca Lorca 18/11/2019 - 24/11/2019 1 4.5 12.0 8.4 42.8 88.9 62.6 3.1 712.0 148.0 2.1 8.1 1.6
31 LO51 Tebar Aguilas 18/11/2019 - 24/11/2019 1 7.3 15.8 12.5 34.2 83.6 52.1 2.8 605.7 149.6 2.8 14.1 2.3
32 LO61 El Esparragal Puerto Lumbreras 18/11/2019 - 24/11/2019 1 4.3 15.6 11.4 29.1 85.8 52.2 1.0 602.3 151.3 2.2 10.2 2.0
33 ML12 Yechar Mula 18/11/2019 - 24/11/2019 1 9.4 15.0 11.8 36.3 91.2 53.9 2.7 None None 2.4 6.5 1.9
34 ML21 Mula Mula 18/11/2019 - 24/11/2019 1 8.6 14.1 11.1 37.5 85.5 54.7 3.3 786.6 138.4 2.7 10.8 2.0
35 MO12 Pilica Torres de Cotillas 18/11/2019 - 24/11/2019 1 9.7 14.7 11.7 42.2 99.8 62.9 5.8 623.3 150.5 3.7 10.8 2.1
36 MO22 Campotejar Molina Segura 18/11/2019 - 24/11/2019 1 9.0 14.9 11.3 34.7 87.7 57.5 2.2 590.4 142.9 2.8 12.5 2.1
37 MO31 El Llano Molina Segura 18/11/2019 - 24/11/2019 1 4.3 15.9 11.2 37.4 99.9 66.3 3.4 571.1 134.5 1.3 8.6 1.4
38 MO41 La Jaira Abanilla 18/11/2019 - 24/11/2019 1 6.4 14.8 10.9 40.2 90.3 60.3 1.9 577.8 131.9 1.7 8.3 1.6
39 MO51 Charco Taray Fortuna 18/11/2019 - 24/11/2019 1 9.3 15.2 11.3 43.0 99.1 65.2 2.2 616.9 140.6 1.4 5.7 1.4
40 MO62 Loma del Aire Ojós 18/11/2019 - 24/11/2019 1 10.4 15.2 12.0 40.8 89.1 57.0 1.6 692.4 78.1 0.7 9.2 1.1
41 MU21 Los Alamos Beniel 18/11/2019 - 24/11/2019 1 6.8 17.0 11.6 42.0 95.7 68.0 1.2 552.1 132.1 1.0 4.7 1.3
42 MU31 La Vereda Murcia 18/11/2019 - 24/11/2019 1 10.2 15.7 12.1 41.0 97.1 60.6 5.6 576.6 126.6 2.1 8.1 1.7
43 MU52 Cabezo Plata Murcia 18/11/2019 - 24/11/2019 1 10.0 16.1 12.1 41.3 96.6 61.6 2.4 606.6 138.5 2.8 10.6 2.0
44 MU62 La Alberca Murcia 18/11/2019 - 24/11/2019 1 6.8 15.9 11.3 36.5 87.8 61.5 3.9 611.0 131.1 1.0 7.5 1.3
45 TP22 Santiago de la Ribera San Javier 18/11/2019 - 24/11/2019 1 8.8 16.7 12.8 37.3 88.8 58.3 6.2 568.8 139.0 1.7 7.6 1.8
46 TP42 Torre Blanca Torre Pacheco 18/11/2019 - 24/11/2019 1 7.7 16.3 12.3 47.3 94.1 66.2 5.8 565.1 139.3 2.6 10.3 1.9
47 TP52 El Mirador San Javier 18/11/2019 - 24/11/2019 1 7.5 15.7 11.9 40.3 92.7 60.3 4.8 576.7 141.0 2.6 10.8 2.0
48 TP73 Los Infiernos Torre Pacheco 18/11/2019 - 24/11/2019 1 6.9 15.3 11.4 44.8 99.9 65.4 8.7 601.6 148.7 3.5 11.0 2.0
49 TP91 Torre Pacheco Torre Pacheco 18/11/2019 - 24/11/2019 1 7.6 15.8 11.9 46.2 99.9 70.2 6.4 499.1 130.7 1.9 8.7 1.5

Propiedades del conjunto de datos

Título
Informe meteorológico de la semana en curso
Descripción

Información sobre los datos meteorológicos medios de la semana en curso. Se incluye la información por cada una de las estaciones meteorológicas de la red SIAM gestionada por el Instituto Murciano de Investigación y Desarrollo Agrario y Alimentario (IMIDA). Los datos recogidos por las estaciones son validados al día siguiente de la toma de datos.

Categoría
Palabra clave / etiqueta
Publicador
Cobertura geográfica
Región de Murcia
Idioma
Español
Fecha de primera publicación
15/05/2018
Fecha de última modificación
22/11/2019
Licencia
Frecuencia de actualización
Diaria (cada día)
Diccionario de datos
La información se estructura en las siguientes columnas: Código de estación meteorológica, Nombre del paraje donde está ubicada la estación, Municipio donde está ubicada la estación, Fechas de toma de datos, número de días del ejercicio, Temperatura mínima (ºC), Temperatura máxima (ºC), Temperatura media (ºC), Humedad Relativa mínima (%), Humedad Relativa máxima (%),Humedad Relativa media (%),Precipitación (mm), radiación máxima (w/m2), radiación media (w/m2), Velocidad del Viento media (m/seg), Velocidad del Viento máxima (m/seg), Evapotranspiración máxima de un día (mm).
comments powered by Disqus